Time;durP1;ratioP1;P1;durP2;ratioP2;P2;SDS_P1;SDS_P2;PMS_P1;PMS_P2;Temp;Humidity;BMP_temperature;BMP_pressure;BME280_temperature;BME280_humidity;BME280_pressure;Samples;Min_cycle;Max_cycle;Signal;HPM_P1;HPM_P2
2023/08/21 00:03:33;;;;;;;34.53;25.05;;;;;;;;;;8092035;29;20136;-88
2023/08/21 00:07:37;;;;;;;30.90;22.35;;;;;;;;;;8107722;29;20068;-89
2023/08/21 00:11:40;;;;;;;37.90;25.20;;;;;;;;;;8102435;29;20128;-87
2023/08/21 00:15:43;;;;;;;37.70;24.67;;;;;;;;;;8107069;29;20052;-88
2023/08/21 00:19:46;;;;;;;36.95;25.55;;;;;;;;;;8104046;29;20108;-87
2023/08/21 00:23:50;;;;;;;37.15;26.95;;;;;;;;;;8088850;29;20135;-88
2023/08/21 00:27:53;;;;;;;40.25;26.05;;;;;;;;;;8092932;29;20067;-88
2023/08/21 00:31:55;;;;;;;41.97;27.73;;;;;;;;;;8094273;29;20052;-88
2023/08/21 00:35:58;;;;;;;40.05;26.67;;;;;;;;;;8106703;29;20056;-87
2023/08/21 00:40:03;;;;;;;43.85;27.75;;;;;;;;;;8100509;29;20084;-88
2023/08/21 00:44:06;;;;;;;34.55;25.45;;;;;;;;;;8094685;29;20060;-88
2023/08/21 00:48:09;;;;;;;37.60;24.92;;;;;;;;;;8106846;29;20084;-88
2023/08/21 00:52:15;;;;;;;36.55;26.13;;;;;;;;;;8106406;29;20064;-88
2023/08/21 00:56:21;;;;;;;35.15;24.77;;;;;;;;;;8099233;29;20811;-89
2023/08/21 01:00:25;;;;;;;39.33;26.25;;;;;;;;;;8103191;29;20494;-88
2023/08/21 01:04:28;;;;;;;39.13;25.58;;;;;;;;;;8106063;29;20056;-88
2023/08/21 01:08:41;;;;;;;35.90;24.40;;;;;;;;;;8095275;29;20112;-88
2023/08/21 01:12:51;;;;;;;41.08;26.40;;;;;;;;;;8093679;29;20114;-88
2023/08/21 01:16:57;;;;;;;38.85;26.13;;;;;;;;;;8105430;29;20053;-89
2023/08/21 01:21:00;;;;;;;39.03;25.55;;;;;;;;;;8106008;29;20206;-88
2023/08/21 01:25:05;;;;;;;40.58;25.73;;;;;;;;;;8105139;29;20061;-88
2023/08/21 01:29:08;;;;;;;43.80;26.50;;;;;;;;;;8105795;29;20076;-88
2023/08/21 01:33:16;;;;;;;39.55;25.98;;;;;;;;;;8105778;29;20060;-88
2023/08/21 01:37:19;;;;;;;36.60;24.83;;;;;;;;;;8105585;29;20060;-88
2023/08/21 01:41:26;;;;;;;38.42;25.67;;;;;;;;;;8105611;29;20132;-88
2023/08/21 01:45:29;;;;;;;33.53;23.23;;;;;;;;;;8105680;29;20059;-88
2023/08/21 01:49:31;;;;;;;35.78;24.52;;;;;;;;;;8088552;29;20053;-88
2023/08/21 01:53:34;;;;;;;36.20;23.95;;;;;;;;;;8093216;29;20063;-88
2023/08/21 01:57:38;;;;;;;40.70;25.70;;;;;;;;;;8105441;29;20057;-88
2023/08/21 02:01:41;;;;;;;38.60;24.80;;;;;;;;;;8105582;29;20502;-88
2023/08/21 02:05:44;;;;;;;37.45;23.35;;;;;;;;;;8105371;29;20060;-89
2023/08/21 02:09:47;;;;;;;33.50;21.33;;;;;;;;;;8105303;29;20092;-89
2023/08/21 02:13:51;;;;;;;37.45;23.60;;;;;;;;;;8105043;29;20057;-88
2023/08/21 02:17:54;;;;;;;36.53;22.90;;;;;;;;;;8105169;29;20064;-88
2023/08/21 02:21:57;;;;;;;36.70;24.35;;;;;;;;;;8104850;29;20099;-88
2023/08/21 02:26:00;;;;;;;37.80;24.63;;;;;;;;;;8104981;29;20120;-88
2023/08/21 02:30:04;;;;;;;36.85;25.17;;;;;;;;;;8104968;29;20480;-88
2023/08/21 02:34:07;;;;;;;35.17;23.98;;;;;;;;;;8106705;29;20148;-88
2023/08/21 02:38:10;;;;;;;34.08;23.98;;;;;;;;;;8108411;29;20185;-89
2023/08/21 02:42:12;;;;;;;39.13;24.85;;;;;;;;;;8109644;29;20056;-89
2023/08/21 02:46:18;;;;;;;42.70;24.77;;;;;;;;;;8307446;23;20148;-88
2023/08/21 02:50:21;;;;;;;37.00;23.38;;;;;;;;;;8110458;29;20151;-88
2023/08/21 02:54:24;;;;;;;41.05;25.25;;;;;;;;;;8110443;29;20056;-88
2023/08/21 02:58:27;;;;;;;35.10;23.33;;;;;;;;;;8110324;29;20084;-88
2023/08/21 03:02:34;;;;;;;39.05;24.25;;;;;;;;;;8110263;29;20052;-88
2023/08/21 03:06:37;;;;;;;36.70;24.75;;;;;;;;;;8092920;29;20084;-88
2023/08/21 03:10:39;;;;;;;45.10;26.92;;;;;;;;;;8087199;29;20052;-88
2023/08/21 03:14:42;;;;;;;38.00;24.48;;;;;;;;;;8109406;29;20060;-88
2023/08/21 03:18:59;;;;;;;44.38;27.45;;;;;;;;;;8109487;29;20108;-88
2023/08/21 03:23:05;;;;;;;45.10;27.17;;;;;;;;;;8109190;29;20064;-88
2023/08/21 03:27:08;;;;;;;39.05;24.50;;;;;;;;;;8109146;29;20533;-88
2023/08/21 03:31:11;;;;;;;37.75;24.65;;;;;;;;;;8109095;29;20516;-88
2023/08/21 03:35:15;;;;;;;42.10;26.73;;;;;;;;;;8100654;29;20565;-88
2023/08/21 03:39:18;;;;;;;40.25;26.48;;;;;;;;;;8105070;29;20139;-88
2023/08/21 03:43:21;;;;;;;40.90;25.58;;;;;;;;;;8108544;29;20139;-89
2023/08/21 03:47:23;;;;;;;38.03;24.42;;;;;;;;;;8107347;29;20064;-89
2023/08/21 03:51:28;;;;;;;37.55;24.45;;;;;;;;;;8108181;29;20459;-88
2023/08/21 03:55:31;;;;;;;36.65;24.13;;;;;;;;;;8108338;29;20738;-88
2023/08/21 03:59:34;;;;;;;36.35;22.15;;;;;;;;;;8107999;29;20136;-88
2023/08/21 04:03:38;;;;;;;29.67;21.77;;;;;;;;;;8107990;29;20183;-89
2023/08/21 04:07:41;;;;;;;33.72;21.20;;;;;;;;;;8107800;29;20071;-90
2023/08/21 04:11:47;;;;;;;30.20;21.20;;;;;;;;;;8107917;29;20073;-89
2023/08/21 04:15:50;;;;;;;29.42;20.85;;;;;;;;;;8107459;29;20056;-88
2023/08/21 04:19:53;;;;;;;32.97;22.10;;;;;;;;;;8107670;29;20054;-88
2023/08/21 04:23:57;;;;;;;30.73;20.02;;;;;;;;;;8107372;29;20564;-89
2023/08/21 04:28:00;;;;;;;27.42;18.02;;;;;;;;;;8107489;29;20056;-89
2023/08/21 04:32:03;;;;;;;26.30;20.08;;;;;;;;;;8107154;29;20140;-89
2023/08/21 04:36:07;;;;;;;28.25;18.95;;;;;;;;;;8107031;29;20058;-89
2023/08/21 04:40:12;;;;;;;22.15;16.85;;;;;;;;;;8107049;29;20549;-88
2023/08/21 04:44:15;;;;;;;24.55;17.60;;;;;;;;;;8088595;29;20052;-89
2023/08/21 04:48:18;;;;;;;22.77;17.92;;;;;;;;;;8084461;29;20534;-88
2023/08/21 04:52:23;;;;;;;20.42;16.50;;;;;;;;;;8093463;29;20057;-89
2023/08/21 04:56:28;;;;;;;20.60;15.02;;;;;;;;;;8105073;29;20523;-89
2023/08/21 05:00:31;;;;;;;20.70;14.98;;;;;;;;;;8098666;29;20066;-88
2023/08/21 05:04:33;;;;;;;18.65;14.30;;;;;;;;;;8078938;29;20085;-88
2023/08/21 05:08:36;;;;;;;15.73;13.00;;;;;;;;;;8105540;29;20127;-88
2023/08/21 05:12:40;;;;;;;17.13;11.70;;;;;;;;;;8106006;29;20064;-88
2023/08/21 05:16:43;;;;;;;12.90;11.27;;;;;;;;;;8081826;29;20064;-88
2023/08/21 05:20:46;;;;;;;13.43;11.55;;;;;;;;;;8105710;29;20079;-88
2023/08/21 05:24:48;;;;;;;12.20;10.90;;;;;;;;;;8099098;29;20200;-87
2023/08/21 05:28:53;;;;;;;14.07;10.73;;;;;;;;;;8098325;29;20581;-88
2023/08/21 05:32:56;;;;;;;14.73;10.50;;;;;;;;;;8105425;29;20060;-88
2023/08/21 05:36:59;;;;;;;11.20;10.10;;;;;;;;;;8087818;29;20061;-88
2023/08/21 05:41:02;;;;;;;12.75;10.32;;;;;;;;;;8105018;29;20135;-88
2023/08/21 05:45:07;;;;;;;12.00;10.75;;;;;;;;;;8105299;29;20052;-87
2023/08/21 05:49:10;;;;;;;12.30;10.32;;;;;;;;;;8105789;29;20461;-87
2023/08/21 05:53:13;;;;;;;15.50;10.38;;;;;;;;;;8105373;29;20116;-87
2023/08/21 05:57:16;;;;;;;14.38;11.55;;;;;;;;;;8105434;29;20144;-87
2023/08/21 06:01:20;;;;;;;14.68;12.02;;;;;;;;;;8103741;29;20057;-87
2023/08/21 06:05:23;;;;;;;13.10;11.70;;;;;;;;;;8095688;29;20109;-88
2023/08/21 06:09:29;;;;;;;14.77;11.75;;;;;;;;;;8088657;29;20135;-88
2023/08/21 06:13:32;;;;;;;13.77;12.35;;;;;;;;;;8086475;29;20053;-88
2023/08/21 06:17:36;;;;;;;13.73;12.35;;;;;;;;;;8098197;29;20072;-87
2023/08/21 06:21:39;;;;;;;14.70;12.82;;;;;;;;;;8107313;29;20609;-87
2023/08/21 06:25:44;;;;;;;16.77;13.48;;;;;;;;;;8102923;29;20064;-87
2023/08/21 06:29:47;;;;;;;16.35;12.80;;;;;;;;;;8109199;29;20572;-87
2023/08/21 06:33:51;;;;;;;15.10;13.10;;;;;;;;;;8110295;29;20061;-86
2023/08/21 06:37:55;;;;;;;20.25;13.93;;;;;;;;;;8110528;29;20405;-87
2023/08/21 06:42:00;;;;;;;18.10;14.50;;;;;;;;;;8110379;29;20120;-87
2023/08/21 06:46:02;;;;;;;25.83;15.55;;;;;;;;;;8110491;29;20545;-87
2023/08/21 06:50:07;;;;;;;19.30;15.48;;;;;;;;;;8110098;29;20056;-88
2023/08/21 06:54:10;;;;;;;20.52;14.85;;;;;;;;;;8109945;29;20057;-87
2023/08/21 06:58:13;;;;;;;21.42;14.50;;;;;;;;;;8110084;29;20112;-87
2023/08/21 07:02:16;;;;;;;16.42;13.48;;;;;;;;;;8109602;29;20144;-87
2023/08/21 07:06:21;;;;;;;19.42;13.65;;;;;;;;;;8109447;29;20080;-87
2023/08/21 07:10:24;;;;;;;18.90;12.70;;;;;;;;;;8109664;29;20063;-87
2023/08/21 07:14:26;;;;;;;17.30;13.73;;;;;;;;;;8090191;29;20485;-88
2023/08/21 07:18:29;;;;;;;16.60;13.48;;;;;;;;;;8109480;29;20060;-88
2023/08/21 07:22:34;;;;;;;18.23;13.85;;;;;;;;;;8107839;29;20061;-88
2023/08/21 07:26:40;;;;;;;18.08;13.98;;;;;;;;;;8109089;29;20144;-87
2023/08/21 07:30:43;;;;;;;17.95;14.07;;;;;;;;;;8108761;29;20059;-87
2023/08/21 07:34:46;;;;;;;26.95;15.85;;;;;;;;;;8108850;29;20063;-87
2023/08/21 07:38:51;;;;;;;25.67;16.23;;;;;;;;;;8100201;29;20123;-87
2023/08/21 07:42:54;;;;;;;24.60;17.15;;;;;;;;;;8107294;29;20095;-88
2023/08/21 07:46:57;;;;;;;29.90;18.48;;;;;;;;;;8105519;29;20076;-88
2023/08/21 07:51:00;;;;;;;26.58;19.55;;;;;;;;;;8106489;29;20111;-87
2023/08/21 07:55:05;;;;;;;29.05;20.35;;;;;;;;;;8108267;29;20079;-88
2023/08/21 07:59:08;;;;;;;32.33;20.40;;;;;;;;;;8108185;29;20135;-88
2023/08/21 08:03:14;;;;;;;27.35;19.88;;;;;;;;;;8108030;29;20136;-88
2023/08/21 08:07:17;;;;;;;31.17;21.85;;;;;;;;;;8108102;29;20441;-88
2023/08/21 08:11:21;;;;;;;20.75;17.48;;;;;;;;;;8107602;29;20085;-88
2023/08/21 08:15:24;;;;;;;20.08;16.52;;;;;;;;;;8107793;29;20156;-87
2023/08/21 08:19:27;;;;;;;20.17;15.25;;;;;;;;;;8107444;29;20057;-88
2023/08/21 08:23:30;;;;;;;19.05;15.55;;;;;;;;;;8107587;29;20421;-88
2023/08/21 08:27:34;;;;;;;19.73;13.88;;;;;;;;;;8107297;29;20516;-88
2023/08/21 08:31:38;;;;;;;17.27;14.38;;;;;;;;;;8106941;29;20056;-88
2023/08/21 08:35:41;;;;;;;16.00;13.88;;;;;;;;;;8107000;29;20049;-88
2023/08/21 08:39:44;;;;;;;16.00;12.77;;;;;;;;;;8106932;29;20136;-88
2023/08/21 08:43:49;;;;;;;14.88;12.68;;;;;;;;;;8106784;29;20127;-88
2023/08/21 08:47:52;;;;;;;17.67;13.60;;;;;;;;;;8106396;29;20132;-88
2023/08/21 08:51:55;;;;;;;12.95;11.32;;;;;;;;;;8106510;29;20143;-88
2023/08/21 08:55:58;;;;;;;14.10;11.30;;;;;;;;;;8106429;29;20057;-88
2023/08/21 09:00:04;;;;;;;13.93;11.40;;;;;;;;;;8106341;29;20098;-88
2023/08/21 09:04:07;;;;;;;15.10;11.48;;;;;;;;;;8106378;29;20056;-88
2023/08/21 09:08:13;;;;;;;13.50;11.13;;;;;;;;;;8106547;29;20059;-88
2023/08/21 09:12:18;;;;;;;13.32;10.75;;;;;;;;;;8106037;29;20076;-88
2023/08/21 09:16:25;;;;;;;14.70;11.07;;;;;;;;;;8105241;29;20064;-88
2023/08/21 09:20:27;;;;;;;14.43;11.57;;;;;;;;;;8085785;29;20053;-88
2023/08/21 09:24:30;;;;;;;14.85;10.57;;;;;;;;;;8092679;29;20163;-87
2023/08/21 09:28:34;;;;;;;16.58;10.57;;;;;;;;;;8097984;29;20139;-88
2023/08/21 09:32:54;;;;;;;17.63;10.75;;;;;;;;;;8105714;29;20511;-87
2023/08/21 09:36:57;;;;;;;17.52;12.25;;;;;;;;;;8105602;29;20056;-88
2023/08/21 09:41:00;;;;;;;19.77;10.88;;;;;;;;;;8105780;29;20052;-87
2023/08/21 09:45:04;;;;;;;20.52;9.98;;;;;;;;;;8108762;29;20545;-88
2023/08/21 09:49:08;;;;;;;19.63;11.45;;;;;;;;;;8112143;29;20073;-87
2023/08/21 09:53:12;;;;;;;18.55;11.52;;;;;;;;;;8111824;29;20068;-87
2023/08/21 09:57:16;;;;;;;19.42;11.10;;;;;;;;;;8111725;29;20064;-88
2023/08/21 10:01:21;;;;;;;17.60;10.18;;;;;;;;;;8111541;29;20143;-88
2023/08/21 10:05:26;;;;;;;14.77;9.45;;;;;;;;;;8111431;29;20053;-88
2023/08/21 10:09:30;;;;;;;11.57;8.50;;;;;;;;;;8111309;29;20064;-87
2023/08/21 10:13:34;;;;;;;17.77;8.23;;;;;;;;;;8111292;29;20117;-88
2023/08/21 10:17:37;;;;;;;11.68;8.98;;;;;;;;;;8111015;29;20139;-88
2023/08/21 10:21:41;;;;;;;9.68;7.68;;;;;;;;;;8110972;29;20056;-88
2023/08/21 10:25:44;;;;;;;11.32;7.10;;;;;;;;;;8111023;29;20425;-87
2023/08/21 10:29:58;;;;;;;8.25;6.10;;;;;;;;;;8110899;29;20065;-87
2023/08/21 10:34:02;;;;;;;11.35;6.60;;;;;;;;;;8110676;29;20055;-87
2023/08/21 10:38:11;;;;;;;13.63;6.53;;;;;;;;;;8110765;29;20061;-87
2023/08/21 10:42:15;;;;;;;12.67;6.67;;;;;;;;;;8110502;29;20446;-87
2023/08/21 10:46:18;;;;;;;11.38;6.07;;;;;;;;;;8110210;29;20071;-87
2023/08/21 10:50:21;;;;;;;9.80;5.95;;;;;;;;;;8110213;29;20106;-87
2023/08/21 10:54:25;;;;;;;10.95;6.00;;;;;;;;;;8109870;29;20139;-87
2023/08/21 10:58:28;;;;;;;9.63;6.50;;;;;;;;;;8109924;29;20109;-87
2023/08/21 11:02:33;;;;;;;6.53;4.90;;;;;;;;;;8109974;29;20060;-87
2023/08/21 11:06:36;;;;;;;7.72;5.10;;;;;;;;;;8109716;29;20214;-88
2023/08/21 11:10:41;;;;;;;8.93;4.68;;;;;;;;;;8109590;29;20084;-87
2023/08/21 11:14:44;;;;;;;7.07;4.88;;;;;;;;;;8091469;29;20053;-88
2023/08/21 11:18:47;;;;;;;7.80;5.25;;;;;;;;;;8095067;29;20052;-87
2023/08/21 11:22:50;;;;;;;7.28;5.18;;;;;;;;;;8098441;29;20502;-87
2023/08/21 11:26:55;;;;;;;8.10;5.38;;;;;;;;;;8087431;29;20084;-88
2023/08/21 11:30:58;;;;;;;8.05;5.15;;;;;;;;;;8090000;29;20056;-88
2023/08/21 11:35:03;;;;;;;6.20;4.57;;;;;;;;;;8093468;29;20087;-87
2023/08/21 11:39:07;;;;;;;8.55;4.70;;;;;;;;;;8089518;29;20061;-89
2023/08/21 11:43:13;;;;;;;5.75;4.53;;;;;;;;;;8094824;29;20061;-87
2023/08/21 11:47:17;;;;;;;7.75;4.97;;;;;;;;;;8108237;29;20084;-87
2023/08/21 11:51:20;;;;;;;6.80;4.95;;;;;;;;;;8108471;29;20120;-88
2023/08/21 11:55:23;;;;;;;6.20;4.90;;;;;;;;;;8108281;29;20409;-88
2023/08/21 11:59:31;;;;;;;7.85;4.82;;;;;;;;;;8099175;29;20136;-88
2023/08/21 12:03:38;;;;;;;6.88;5.15;;;;;;;;;;8095544;29;20085;-87
2023/08/21 12:07:41;;;;;;;11.90;5.30;;;;;;;;;;8107222;29;20060;-87
2023/08/21 12:11:44;;;;;;;8.25;5.18;;;;;;;;;;8107856;29;20091;-87
2023/08/21 12:15:48;;;;;;;11.02;5.32;;;;;;;;;;8107502;29;20500;-87
2023/08/21 12:19:51;;;;;;;6.70;4.88;;;;;;;;;;8107742;29;20053;-88
2023/08/21 12:23:54;;;;;;;7.00;4.55;;;;;;;;;;8107528;29;20584;-88
2023/08/21 12:27:57;;;;;;;8.30;4.60;;;;;;;;;;8107411;29;20068;-87
2023/08/21 12:32:07;;;;;;;5.72;4.45;;;;;;;;;;8093068;29;20056;-89
2023/08/21 12:36:10;;;;;;;6.55;4.05;;;;;;;;;;8085058;29;20132;-89
2023/08/21 12:40:13;;;;;;;9.13;4.75;;;;;;;;;;8088883;29;20061;-88
2023/08/21 12:44:16;;;;;;;6.88;4.20;;;;;;;;;;8088760;29;20064;-86
2023/08/21 12:48:21;;;;;;;5.50;3.83;;;;;;;;;;8093419;29;20135;-87
2023/08/21 12:52:23;;;;;;;6.18;4.00;;;;;;;;;;8096977;29;20058;-87
2023/08/21 12:56:27;;;;;;;5.63;4.15;;;;;;;;;;8096940;29;20105;-87
2023/08/21 13:00:30;;;;;;;7.68;4.10;;;;;;;;;;8106401;29;20056;-86
2023/08/21 13:04:36;;;;;;;6.60;3.97;;;;;;;;;;8088545;29;20057;-86
2023/08/21 13:08:39;;;;;;;5.50;4.10;;;;;;;;;;8087639;29;20143;-87
2023/08/21 13:12:42;;;;;;;5.10;3.88;;;;;;;;;;8090445;29;20056;-87
2023/08/21 13:16:45;;;;;;;6.30;4.28;;;;;;;;;;8093325;29;20556;-87
2023/08/21 13:20:49;;;;;;;7.18;4.30;;;;;;;;;;8099012;29;20165;-89
2023/08/21 13:24:52;;;;;;;5.80;4.30;;;;;;;;;;8088433;29;20131;-88
2023/08/21 13:28:56;;;;;;;5.82;4.78;;;;;;;;;;8093140;29;20053;-87
2023/08/21 13:32:59;;;;;;;7.65;4.45;;;;;;;;;;8079480;29;20081;-87
2023/08/21 13:37:05;;;;;;;9.43;4.35;;;;;;;;;;8084922;29;20053;-88
2023/08/21 13:41:08;;;;;;;6.95;4.57;;;;;;;;;;8085799;29;20462;-87
2023/08/21 13:45:12;;;;;;;7.90;4.55;;;;;;;;;;8101960;29;20593;-88
2023/08/21 13:49:15;;;;;;;6.05;4.20;;;;;;;;;;8090691;29;20127;-87
2023/08/21 13:53:20;;;;;;;5.70;4.30;;;;;;;;;;8099815;29;20076;-87
2023/08/21 13:57:23;;;;;;;5.10;3.63;;;;;;;;;;8092188;29;20634;-87
2023/08/21 14:01:25;;;;;;;4.90;3.47;;;;;;;;;;8102635;29;20052;-87
2023/08/21 14:05:31;;;;;;;4.53;3.50;;;;;;;;;;8102278;29;20052;-88
2023/08/21 14:09:36;;;;;;;5.72;3.47;;;;;;;;;;8102721;29;20127;-88
2023/08/21 14:13:39;;;;;;;5.82;3.28;;;;;;;;;;8104102;29;20509;-87
2023/08/21 14:17:42;;;;;;;4.82;3.45;;;;;;;;;;8105276;29;20083;-87
2023/08/21 14:21:45;;;;;;;9.20;3.85;;;;;;;;;;8082465;29;20095;-88
2023/08/21 14:25:52;;;;;;;5.63;3.30;;;;;;;;;;8076981;29;20454;-87
2023/08/21 14:29:55;;;;;;;5.57;3.80;;;;;;;;;;8106450;29;20561;-87
2023/08/21 14:33:58;;;;;;;5.78;3.40;;;;;;;;;;8082876;29;20060;-87
2023/08/21 14:38:02;;;;;;;5.38;3.17;;;;;;;;;;8088722;29;20147;-87
2023/08/21 14:42:07;;;;;;;5.57;3.58;;;;;;;;;;8082701;29;20064;-88
2023/08/21 14:46:10;;;;;;;5.60;3.42;;;;;;;;;;8110181;29;20488;-88
2023/08/21 14:50:13;;;;;;;5.78;3.10;;;;;;;;;;8110331;29;20141;-87
2023/08/21 14:54:16;;;;;;;5.07;3.25;;;;;;;;;;8110231;29;20096;-87
2023/08/21 14:58:20;;;;;;;5.38;3.30;;;;;;;;;;8110037;29;20576;-87
2023/08/21 15:02:24;;;;;;;6.57;2.95;;;;;;;;;;8109982;29;20053;-87
2023/08/21 15:06:27;;;;;;;6.15;3.58;;;;;;;;;;8081732;29;20052;-88
2023/08/21 15:10:31;;;;;;;6.60;3.40;;;;;;;;;;8088349;29;20462;-87
2023/08/21 15:14:35;;;;;;;5.85;3.15;;;;;;;;;;8109439;29;20466;-87
2023/08/21 15:18:38;;;;;;;6.25;3.08;;;;;;;;;;8109619;29;20052;-87
2023/08/21 15:22:42;;;;;;;6.30;3.00;;;;;;;;;;8109158;29;20068;-87
2023/08/21 15:26:45;;;;;;;8.23;3.55;;;;;;;;;;8109238;29;20137;-88
2023/08/21 15:30:49;;;;;;;5.80;3.40;;;;;;;;;;8109134;29;20072;-87
2023/08/21 15:34:52;;;;;;;5.95;3.00;;;;;;;;;;8092207;29;20104;-87
2023/08/21 15:38:55;;;;;;;5.30;2.85;;;;;;;;;;8108296;29;20083;-87
2023/08/21 15:43:02;;;;;;;5.78;3.22;;;;;;;;;;8086039;29;20052;-87
2023/08/21 15:47:07;;;;;;;5.25;3.10;;;;;;;;;;8108439;29;20056;-87
2023/08/21 15:51:10;;;;;;;8.88;3.35;;;;;;;;;;8088155;29;20052;-87
2023/08/21 15:55:14;;;;;;;7.60;3.85;;;;;;;;;;8108958;29;20049;-87
2023/08/21 15:59:17;;;;;;;7.63;3.83;;;;;;;;;;8094828;29;20065;-87
2023/08/21 16:03:24;;;;;;;5.75;3.80;;;;;;;;;;8078985;29;20075;-87
2023/08/21 16:07:26;;;;;;;7.28;3.55;;;;;;;;;;8078114;29;20497;-88
2023/08/21 16:11:29;;;;;;;8.55;3.80;;;;;;;;;;8089880;29;20563;-87
2023/08/21 16:15:33;;;;;;;8.88;3.97;;;;;;;;;;8080396;29;20421;-87
2023/08/21 16:19:38;;;;;;;10.05;4.43;;;;;;;;;;8094515;29;20438;-88
2023/08/21 16:23:41;;;;;;;9.73;4.43;;;;;;;;;;8082532;29;20193;-88
2023/08/21 16:27:44;;;;;;;6.05;4.15;;;;;;;;;;8085869;29;20565;-88
2023/08/21 16:31:47;;;;;;;6.95;4.38;;;;;;;;;;8084383;29;20422;-89
2023/08/21 16:35:54;;;;;;;9.35;4.60;;;;;;;;;;8086414;23;20056;-88
2023/08/21 16:39:57;;;;;;;9.48;5.85;;;;;;;;;;8076804;29;20053;-88
2023/08/21 16:44:01;;;;;;;10.20;6.57;;;;;;;;;;8080736;29;20060;-88
2023/08/21 16:48:05;;;;;;;9.85;6.85;;;;;;;;;;8085748;29;20075;-87
2023/08/21 16:52:09;;;;;;;10.30;6.55;;;;;;;;;;8087651;29;20092;-88
2023/08/21 16:56:12;;;;;;;10.68;6.43;;;;;;;;;;8078368;29;20143;-87
2023/08/21 17:00:16;;;;;;;11.65;5.53;;;;;;;;;;8060096;29;20053;-87
2023/08/21 17:04:19;;;;;;;9.43;5.80;;;;;;;;;;8084943;29;20067;-87
2023/08/21 17:08:24;;;;;;;8.02;5.82;;;;;;;;;;8082947;29;20562;-88
2023/08/21 17:12:27;;;;;;;11.75;7.38;;;;;;;;;;8078842;29;20061;-87
2023/08/21 17:16:31;;;;;;;16.25;8.10;;;;;;;;;;8085393;29;20065;-87
2023/08/21 17:20:34;;;;;;;17.38;9.32;;;;;;;;;;8101101;29;20154;-87
2023/08/21 17:24:39;;;;;;;12.63;8.95;;;;;;;;;;8106010;29;20115;-87
2023/08/21 17:28:43;;;;;;;15.40;9.25;;;;;;;;;;8105889;29;20071;-87
2023/08/21 17:32:47;;;;;;;13.00;8.98;;;;;;;;;;8081917;29;20105;-88
2023/08/21 17:36:52;;;;;;;15.60;9.90;;;;;;;;;;8105588;29;20614;-87
2023/08/21 17:40:58;;;;;;;11.48;8.02;;;;;;;;;;8102568;29;20075;-87
2023/08/21 17:45:03;;;;;;;12.18;8.20;;;;;;;;;;8084092;29;20060;-87
2023/08/21 17:49:07;;;;;;;14.38;8.45;;;;;;;;;;8083445;29;20153;-88
2023/08/21 17:53:11;;;;;;;19.45;9.18;;;;;;;;;;8084415;29;20061;-88
2023/08/21 17:57:16;;;;;;;17.98;9.27;;;;;;;;;;8079329;29;20132;-87
2023/08/21 18:01:20;;;;;;;21.08;8.38;;;;;;;;;;8080360;29;20391;-88
2023/08/21 18:05:24;;;;;;;12.10;7.60;;;;;;;;;;8077823;29;20057;-88
2023/08/21 18:09:27;;;;;;;35.45;26.05;;;;;;;;;;8086074;29;20076;-88
2023/08/21 18:13:31;;;;;;;28.45;18.05;;;;;;;;;;8111403;29;20151;-88
2023/08/21 18:17:36;;;;;;;16.58;12.88;;;;;;;;;;8096373;29;20080;-88
2023/08/21 18:21:40;;;;;;;12.88;9.10;;;;;;;;;;8092633;29;20074;-89
2023/08/21 18:25:44;;;;;;;13.55;10.15;;;;;;;;;;8094873;29;20052;-88
2023/08/21 18:29:50;;;;;;;12.25;9.18;;;;;;;;;;8083911;29;20055;-88
2023/08/21 18:33:54;;;;;;;16.45;11.23;;;;;;;;;;8076770;29;20406;-88
2023/08/21 18:37:58;;;;;;;15.57;11.23;;;;;;;;;;8105197;29;20053;-87
2023/08/21 18:42:03;;;;;;;17.55;11.95;;;;;;;;;;8085831;29;20079;-88
2023/08/21 18:46:08;;;;;;;17.95;13.02;;;;;;;;;;8092362;29;20061;-87
2023/08/21 18:50:11;;;;;;;19.42;13.75;;;;;;;;;;8110396;29;20059;-87
2023/08/21 18:54:16;;;;;;;20.67;11.48;;;;;;;;;;8110184;29;20068;-88
2023/08/21 18:58:21;;;;;;;18.50;12.73;;;;;;;;;;8110076;29;20068;-88
2023/08/21 19:02:27;;;;;;;17.98;10.90;;;;;;;;;;8109747;29;20095;-87
2023/08/21 19:06:33;;;;;;;17.60;10.90;;;;;;;;;;8109910;29;20517;-87
2023/08/21 19:10:37;;;;;;;16.85;10.07;;;;;;;;;;8109827;29;20057;-88
2023/08/21 19:14:41;;;;;;;17.35;10.18;;;;;;;;;;8109486;29;20056;-88
2023/08/21 19:18:47;;;;;;;17.83;10.88;;;;;;;;;;8109211;29;20580;-87
2023/08/21 19:22:54;;;;;;;14.63;10.35;;;;;;;;;;8109407;29;20080;-87
2023/08/21 19:26:57;;;;;;;20.25;11.32;;;;;;;;;;8089412;29;20044;-88
2023/08/21 19:31:07;;;;;;;18.55;11.43;;;;;;;;;;8109093;29;20421;-88
2023/08/21 19:35:14;;;;;;;16.70;8.93;;;;;;;;;;8089497;29;20477;-88
2023/08/21 19:39:21;;;;;;;15.48;9.05;;;;;;;;;;8108902;29;20493;-88
2023/08/21 19:43:24;;;;;;;18.50;9.07;;;;;;;;;;8108600;29;20094;-87
2023/08/21 19:47:30;;;;;;;19.45;9.63;;;;;;;;;;8084162;29;20049;-88
2023/08/21 19:51:36;;;;;;;15.30;9.55;;;;;;;;;;8108965;29;20539;-88
2023/08/21 19:55:42;;;;;;;13.30;8.95;;;;;;;;;;8108405;29;20057;-87
2023/08/21 19:59:48;;;;;;;15.55;9.68;;;;;;;;;;8059814;29;20068;-87
2023/08/21 20:03:52;;;;;;;16.20;9.77;;;;;;;;;;8091544;29;20061;-87
2023/08/21 20:07:57;;;;;;;20.15;11.07;;;;;;;;;;8107739;29;20463;-87
2023/08/21 20:12:01;;;;;;;17.77;10.25;;;;;;;;;;8107745;29;20398;-87
2023/08/21 20:16:08;;;;;;;12.60;9.50;;;;;;;;;;8107633;29;20060;-87
2023/08/21 20:20:13;;;;;;;16.02;10.02;;;;;;;;;;8107637;29;20057;-88
2023/08/21 20:24:21;;;;;;;14.60;9.07;;;;;;;;;;8107549;29;20091;-87
2023/08/21 20:28:26;;;;;;;13.35;9.10;;;;;;;;;;8107102;29;20052;-88
2023/08/21 20:32:30;;;;;;;13.20;9.18;;;;;;;;;;8107323;29;20081;-87
2023/08/21 20:36:34;;;;;;;13.93;9.25;;;;;;;;;;8107183;29;20080;-87
2023/08/21 20:40:39;;;;;;;17.30;9.35;;;;;;;;;;8107000;29;20394;-88
2023/08/21 20:44:45;;;;;;;14.23;9.18;;;;;;;;;;8107071;29;20076;-88
2023/08/21 20:48:50;;;;;;;16.15;9.73;;;;;;;;;;8064260;29;20139;-87
2023/08/21 20:52:55;;;;;;;13.25;8.27;;;;;;;;;;8106723;29;20056;-88
2023/08/21 20:57:00;;;;;;;12.60;8.77;;;;;;;;;;8093999;29;20131;-87
2023/08/21 21:01:03;;;;;;;13.27;9.63;;;;;;;;;;8106682;29;20143;-88
2023/08/21 21:05:07;;;;;;;15.77;9.25;;;;;;;;;;8094342;29;20131;-87
2023/08/21 21:09:10;;;;;;;16.65;10.18;;;;;;;;;;8106129;29;20143;-86
2023/08/21 21:13:15;;;;;;;17.52;10.02;;;;;;;;;;8093947;29;20080;-88
2023/08/21 21:17:17;;;;;;;21.17;11.80;;;;;;;;;;8106062;29;20071;-88
2023/08/21 21:21:21;;;;;;;24.25;11.25;;;;;;;;;;8106084;29;20432;-87
2023/08/21 21:25:23;;;;;;;22.05;11.52;;;;;;;;;;8106039;29;20151;-87
2023/08/21 21:29:28;;;;;;;15.85;11.13;;;;;;;;;;8105828;29;20060;-88
2023/08/21 21:33:31;;;;;;;18.95;11.07;;;;;;;;;;8105795;29;20068;-88
2023/08/21 21:37:34;;;;;;;17.27;10.00;;;;;;;;;;8105664;29;20064;-88
2023/08/21 21:41:37;;;;;;;18.25;10.77;;;;;;;;;;8099466;29;20461;-89
2023/08/21 21:45:41;;;;;;;17.80;11.05;;;;;;;;;;8089907;29;20424;-87
2023/08/21 21:49:44;;;;;;;20.02;10.55;;;;;;;;;;8105869;29;20504;-88
2023/08/21 21:53:47;;;;;;;16.50;10.50;;;;;;;;;;8100436;29;20067;-88
2023/08/21 21:57:50;;;;;;;15.07;10.15;;;;;;;;;;8086971;29;20063;-89
2023/08/21 22:01:55;;;;;;;19.60;10.40;;;;;;;;;;8105441;29;20059;-88
2023/08/21 22:05:58;;;;;;;18.60;10.63;;;;;;;;;;8104787;29;20179;-87
2023/08/21 22:10:02;;;;;;;17.77;10.32;;;;;;;;;;8105291;29;20053;-88
2023/08/21 22:14:05;;;;;;;16.15;10.23;;;;;;;;;;8105067;29;20056;-88
2023/08/21 22:18:10;;;;;;;14.30;9.43;;;;;;;;;;8105152;29;20524;-88
2023/08/21 22:22:12;;;;;;;18.83;9.95;;;;;;;;;;8084672;29;20413;-88
2023/08/21 22:26:15;;;;;;;20.55;9.70;;;;;;;;;;8105148;29;20080;-88
2023/08/21 22:30:18;;;;;;;18.23;10.15;;;;;;;;;;8103692;29;20071;-88
2023/08/21 22:34:22;;;;;;;20.42;10.70;;;;;;;;;;8095376;29;20053;-88
2023/08/21 22:38:25;;;;;;;19.52;11.20;;;;;;;;;;8082507;29;20071;-89
2023/08/21 22:42:28;;;;;;;19.67;11.43;;;;;;;;;;8075993;29;20467;-88
2023/08/21 22:46:31;;;;;;;20.33;10.68;;;;;;;;;;8079158;29;20480;-88
2023/08/21 22:50:37;;;;;;;18.60;10.57;;;;;;;;;;8079687;29;20065;-88
2023/08/21 22:54:40;;;;;;;16.25;9.13;;;;;;;;;;8081778;29;20410;-87
2023/08/21 22:58:44;;;;;;;13.48;9.23;;;;;;;;;;8085998;29;20486;-88
2023/08/21 23:02:47;;;;;;;13.98;9.60;;;;;;;;;;8093173;29;20064;-88
2023/08/21 23:06:51;;;;;;;21.85;10.23;;;;;;;;;;8086704;29;20053;-87
2023/08/21 23:10:54;;;;;;;20.00;11.07;;;;;;;;;;8103235;29;20386;-87
2023/08/21 23:14:57;;;;;;;20.83;11.48;;;;;;;;;;8090545;29;20052;-87
2023/08/21 23:19:01;;;;;;;19.90;11.48;;;;;;;;;;8082360;29;20061;-88
2023/08/21 23:23:06;;;;;;;17.50;11.70;;;;;;;;;;8079040;29;20128;-88
2023/08/21 23:27:08;;;;;;;21.75;11.93;;;;;;;;;;8092339;29;20565;-88
2023/08/21 23:31:11;;;;;;;20.13;11.40;;;;;;;;;;8098711;29;20059;-87
2023/08/21 23:35:14;;;;;;;19.58;11.98;;;;;;;;;;8082009;29;20144;-90
2023/08/21 23:39:19;;;;;;;17.52;10.57;;;;;;;;;;8098968;29;20060;-88
2023/08/21 23:43:21;;;;;;;16.25;10.07;;;;;;;;;;8091810;29;20060;-88
2023/08/21 23:47:24;;;;;;;16.08;10.68;;;;;;;;;;8091786;29;20569;-89
2023/08/21 23:51:27;;;;;;;15.88;9.20;;;;;;;;;;8081803;29;20101;-89
2023/08/21 23:55:32;;;;;;;15.43;9.10;;;;;;;;;;8077296;29;20060;-89